createdAt,value
2022-09-24T00:00:45.751Z,100.00
2022-09-24T00:03:13.887Z,100.00
2022-09-24T00:05:41.358Z,100.00
2022-09-24T00:08:08.778Z,100.00
2022-09-24T00:10:39.020Z,100.00
2022-09-24T00:13:09.074Z,100.00
2022-09-24T00:15:36.772Z,100.00
2022-09-24T00:18:03.980Z,100.00
2022-09-24T00:20:33.139Z,100.00
2022-09-24T00:23:00.238Z,100.00
2022-09-24T00:25:45.851Z,100.00
2022-09-24T00:28:13.441Z,100.00
2022-09-24T00:30:41.293Z,100.00
2022-09-24T00:33:08.814Z,100.00
2022-09-24T00:35:40.076Z,100.00
2022-09-24T00:38:07.238Z,100.00
2022-09-24T00:40:37.465Z,100.00
2022-09-24T00:43:25.765Z,100.00
2022-09-24T00:45:55.514Z,100.00
2022-09-24T00:48:22.533Z,100.00
2022-09-24T00:50:50.980Z,100.00
2022-09-24T00:53:20.869Z,100.00
2022-09-24T00:55:51.739Z,100.00
2022-09-24T00:58:18.999Z,100.00
2022-09-24T01:00:46.128Z,100.00
2022-09-24T01:03:17.084Z,100.00
2022-09-24T01:05:44.241Z,100.00
2022-09-24T01:08:13.862Z,100.00
2022-09-24T01:11:00.080Z,100.00
2022-09-24T01:13:43.589Z,100.00
2022-09-24T01:16:17.754Z,100.00
2022-09-24T01:18:49.388Z,100.00
2022-09-24T01:21:34.469Z,100.00
2022-09-24T01:24:26.190Z,100.00
2022-09-24T01:27:01.948Z,100.00
2022-09-24T01:29:52.446Z,100.00
2022-09-24T01:32:28.895Z,100.00
2022-09-24T01:35:02.344Z,100.00
2022-09-24T01:37:33.878Z,100.00
2022-09-24T01:40:03.286Z,100.00
2022-09-24T01:42:32.067Z,100.00
2022-09-24T01:45:02.556Z,100.00
2022-09-24T01:47:34.937Z,100.00
2022-09-24T01:50:03.747Z,100.00
2022-09-24T01:52:36.116Z,100.00
2022-09-24T01:55:08.480Z,100.00
2022-09-24T01:57:40.049Z,100.00
2022-09-24T02:00:12.327Z,100.00
2022-09-24T02:02:45.498Z,100.00
2022-09-24T02:05:17.199Z,100.00
2022-09-24T02:07:51.088Z,100.00
2022-09-24T02:10:19.315Z,100.00
2022-09-24T02:12:49.676Z,100.00
2022-09-24T02:15:22.334Z,100.00
2022-09-24T02:17:54.826Z,100.00
2022-09-24T02:20:23.764Z,100.00
2022-09-24T02:22:51.860Z,100.00
2022-09-24T02:25:22.420Z,100.00
2022-09-24T02:27:49.288Z,100.00
2022-09-24T02:30:17.949Z,100.00
2022-09-24T02:32:45.007Z,100.00
2022-09-24T02:35:12.811Z,100.00
2022-09-24T02:37:42.634Z,100.00
2022-09-24T02:40:12.812Z,100.00
2022-09-24T02:42:41.392Z,100.00
2022-09-24T02:45:09.220Z,100.00
2022-09-24T02:47:37.778Z,100.00
2022-09-24T02:50:05.421Z,100.00
2022-09-24T02:52:32.307Z,100.00
2022-09-24T02:54:59.172Z,100.00
2022-09-24T02:57:26.062Z,100.00
2022-09-24T02:59:52.878Z,100.00
2022-09-24T03:02:19.821Z,100.00
2022-09-24T03:04:48.073Z,100.00
2022-09-24T03:07:15.133Z,100.00
2022-09-24T03:09:42.393Z,100.00
2022-09-24T03:12:10.135Z,100.00
2022-09-24T03:14:36.997Z,100.00
2022-09-24T03:17:04.447Z,100.00
2022-09-24T03:19:31.200Z,100.00
2022-09-24T03:21:59.380Z,100.00
2022-09-24T03:24:26.601Z,100.00
2022-09-24T03:26:53.455Z,100.00
2022-09-24T03:29:40.262Z,100.00
2022-09-24T03:32:07.065Z,100.00
2022-09-24T03:34:33.830Z,100.00
2022-09-24T03:37:02.084Z,100.00
2022-09-24T03:39:28.898Z,100.00
2022-09-24T03:41:55.690Z,100.00
2022-09-24T03:44:22.441Z,100.00
2022-09-24T03:46:50.237Z,100.00
2022-09-24T03:49:17.346Z,100.00
2022-09-24T03:51:44.200Z,100.00
2022-09-24T03:54:12.689Z,100.00
2022-09-24T03:56:39.490Z,100.00
2022-09-24T03:59:06.329Z,100.00
2022-09-24T04:01:35.471Z,100.00
2022-09-24T04:04:03.304Z,100.00
2022-09-24T04:06:31.161Z,100.00
2022-09-24T04:08:58.163Z,100.00
2022-09-24T04:11:26.423Z,100.00
2022-09-24T04:13:53.495Z,100.00
2022-09-24T04:16:20.446Z,100.00
2022-09-24T04:18:48.734Z,100.00
2022-09-24T04:21:15.623Z,100.00
2022-09-24T04:23:44.574Z,100.00
2022-09-24T04:26:11.468Z,100.00
2022-09-24T04:28:39.703Z,100.00
2022-09-24T04:31:06.637Z,100.00
2022-09-24T04:33:33.824Z,100.00
2022-09-24T04:36:00.790Z,100.00
2022-09-24T04:38:27.570Z,100.00
2022-09-24T04:40:54.408Z,100.00
2022-09-24T04:43:21.241Z,100.00
2022-09-24T04:45:49.510Z,100.00
2022-09-24T04:48:16.276Z,100.00
2022-09-24T04:50:46.171Z,100.00
2022-09-24T04:53:13.576Z,100.00
2022-09-24T04:55:41.720Z,100.00
2022-09-24T04:58:09.420Z,100.00
2022-09-24T05:00:36.547Z,100.00
2022-09-24T05:03:05.554Z,100.00
2022-09-24T05:05:33.242Z,100.00
2022-09-24T05:08:01.593Z,100.00
2022-09-24T05:10:30.093Z,100.00
2022-09-24T05:12:57.002Z,100.00
2022-09-24T05:15:23.828Z,100.00
2022-09-24T05:17:50.605Z,100.00
2022-09-24T05:20:19.756Z,100.00
2022-09-24T05:22:49.306Z,100.00
2022-09-24T05:25:18.506Z,100.00
2022-09-24T05:27:45.778Z,100.00
2022-09-24T05:30:13.141Z,100.00
2022-09-24T05:32:39.936Z,100.00
2022-09-24T05:35:09.781Z,100.00
2022-09-24T05:37:38.411Z,100.00
2022-09-24T05:40:25.081Z,100.00
2022-09-24T05:42:52.505Z,100.00
2022-09-24T05:45:19.294Z,100.00
2022-09-24T05:47:46.812Z,100.00
2022-09-24T05:50:14.254Z,100.00
2022-09-24T05:52:42.950Z,100.00
2022-09-24T05:55:10.768Z,100.00
2022-09-24T05:57:37.614Z,100.00
2022-09-24T06:00:06.420Z,100.00
2022-09-24T06:02:33.279Z,100.00
2022-09-24T06:05:00.117Z,100.00
2022-09-24T06:07:27.004Z,100.00
2022-09-24T06:09:55.450Z,100.00
2022-09-24T06:12:23.614Z,100.00
2022-09-24T06:14:50.440Z,100.00
2022-09-24T06:17:17.296Z,100.00
2022-09-24T06:19:44.074Z,100.00
2022-09-24T06:22:10.944Z,100.00
2022-09-24T06:24:37.785Z,100.00
2022-09-24T06:27:06.357Z,100.00
2022-09-24T06:29:33.427Z,100.00
2022-09-24T06:32:01.993Z,100.00
2022-09-24T06:34:29.058Z,100.00
2022-09-24T06:36:57.034Z,100.00
2022-09-24T06:39:24.433Z,100.00
2022-09-24T06:41:53.114Z,100.00
2022-09-24T06:44:21.338Z,100.00
2022-09-24T06:46:48.345Z,100.00
2022-09-24T06:49:15.263Z,100.00
2022-09-24T06:51:42.137Z,100.00
2022-09-24T06:54:08.951Z,100.00
2022-09-24T06:56:35.682Z,100.00
2022-09-24T06:59:02.552Z,100.00
2022-09-24T07:01:30.866Z,100.00
2022-09-24T07:03:57.711Z,100.00
2022-09-24T07:06:24.533Z,100.00
2022-09-24T07:08:51.841Z,100.00
2022-09-24T07:11:18.624Z,100.00
2022-09-24T07:13:45.436Z,100.00
2022-09-24T07:16:12.350Z,100.00
2022-09-24T07:18:40.596Z,100.00
2022-09-24T07:21:07.384Z,100.00
2022-09-24T07:23:34.896Z,100.00
2022-09-24T07:26:01.765Z,100.00
2022-09-24T07:28:28.681Z,100.00
2022-09-24T07:31:00.052Z,100.00
2022-09-24T07:33:26.985Z,100.00
2022-09-24T07:35:55.119Z,100.00
2022-09-24T07:38:22.444Z,100.00
2022-09-24T07:40:49.631Z,100.00
2022-09-24T07:43:16.514Z,100.00
2022-09-24T07:45:43.422Z,100.00
2022-09-24T07:48:11.247Z,100.00
2022-09-24T07:50:40.233Z,100.00
2022-09-24T07:53:11.029Z,100.00
2022-09-24T07:55:40.602Z,100.00
2022-09-24T07:58:10.844Z,100.00
2022-09-24T08:00:37.726Z,100.00
2022-09-24T08:03:05.660Z,100.00
2022-09-24T08:05:33.293Z,100.00
2022-09-24T08:08:00.305Z,100.00
2022-09-24T08:10:28.905Z,100.00
2022-09-24T08:12:57.268Z,100.00
2022-09-24T08:15:24.150Z,100.00
2022-09-24T08:17:51.503Z,100.00
2022-09-24T08:20:18.570Z,100.00
2022-09-24T08:22:45.359Z,100.00
2022-09-24T08:25:12.151Z,100.00
2022-09-24T08:27:40.392Z,100.00
2022-09-24T08:30:08.775Z,100.00
2022-09-24T08:32:35.652Z,100.00
2022-09-24T08:35:02.443Z,100.00
2022-09-24T08:37:29.501Z,100.00
2022-09-24T08:39:56.428Z,100.00
2022-09-24T08:42:34.597Z,100.00
2022-09-24T08:45:24.161Z,100.00
2022-09-24T08:47:56.461Z,100.00
2022-09-24T08:50:27.136Z,100.00
2022-09-24T08:53:07.615Z,100.00
2022-09-24T08:55:39.539Z,100.00
2022-09-24T08:58:23.147Z,100.00
2022-09-24T09:00:57.237Z,100.00
2022-09-24T09:03:30.960Z,100.00
2022-09-24T09:06:02.696Z,100.00
2022-09-24T09:11:32.033Z,100.00
2022-09-24T09:14:04.459Z,100.00
2022-09-24T09:16:42.886Z,100.00
2022-09-24T09:19:14.001Z,100.00
2022-09-24T09:21:42.548Z,100.00
2022-09-24T09:24:17.248Z,100.00
2022-09-24T09:26:49.513Z,100.00
2022-09-24T09:29:16.935Z,100.00
2022-09-24T09:31:58.664Z,100.00
2022-09-24T09:34:41.167Z,100.00
2022-09-24T09:37:25.787Z,100.00
2022-09-24T09:39:59.321Z,100.00
2022-09-24T09:42:32.299Z,100.00
2022-09-24T09:45:01.471Z,100.00
2022-09-24T09:47:40.955Z,100.00
2022-09-24T09:50:16.899Z,100.00
2022-09-24T09:52:43.720Z,99.71
2022-09-24T09:55:21.718Z,100.00
2022-09-24T09:57:48.903Z,100.00
2022-09-24T10:00:26.791Z,100.00
2022-09-24T10:02:55.261Z,100.00
2022-09-24T10:05:27.376Z,100.00
2022-09-24T10:07:54.709Z,98.67
2022-09-24T10:10:24.295Z,97.26
2022-09-24T10:12:53.822Z,97.53
2022-09-24T10:15:22.222Z,98.18
2022-09-24T10:17:51.914Z,98.47
2022-09-24T10:20:24.237Z,98.27
2022-09-24T10:22:53.354Z,96.25
2022-09-24T10:25:26.486Z,93.99
2022-09-24T10:28:15.980Z,93.34
2022-09-24T10:30:53.663Z,91.93
2022-09-24T10:33:20.728Z,92.26
2022-09-24T10:35:49.662Z,94.14
2022-09-24T10:38:18.946Z,94.34
2022-09-24T10:40:46.768Z,95.45
2022-09-24T10:43:18.601Z,93.56
2022-09-24T10:46:08.800Z,96.69
2022-09-24T10:48:42.276Z,97.02
2022-09-24T10:51:29.130Z,93.92
2022-09-24T10:54:13.066Z,93.19
2022-09-24T10:56:46.595Z,93.73
2022-09-24T10:59:24.315Z,93.89
2022-09-24T11:02:05.119Z,94.83
2022-09-24T11:04:47.486Z,97.14
2022-09-24T11:07:54.812Z,90.87
2022-09-24T11:10:32.933Z,91.93
2022-09-24T11:13:13.940Z,90.89
2022-09-24T11:16:03.890Z,91.37
2022-09-24T11:18:41.384Z,85.54
2022-09-24T11:21:20.092Z,85.75
2022-09-24T11:24:07.677Z,86.20
2022-09-24T11:26:49.267Z,88.26
2022-09-24T11:29:38.642Z,85.96
2022-09-24T11:32:14.996Z,81.98
2022-09-24T11:34:59.213Z,80.24
2022-09-24T11:37:39.398Z,80.36
2022-09-24T11:40:21.398Z,80.10
2022-09-24T11:42:58.122Z,80.19
2022-09-24T11:45:41.318Z,79.72
2022-09-24T11:48:22.288Z,81.58
2022-09-24T11:50:59.969Z,79.50
2022-09-24T11:53:35.611Z,78.00
2022-09-24T11:56:12.927Z,78.38
2022-09-24T11:58:45.174Z,77.39
2022-09-24T12:01:17.745Z,79.38
2022-09-24T12:03:52.051Z,81.46
2022-09-24T12:06:21.977Z,78.62
2022-09-24T12:08:54.366Z,78.61
2022-09-24T12:11:28.284Z,79.68
2022-09-24T12:14:02.561Z,77.56
2022-09-24T12:16:33.771Z,76.85
2022-09-24T12:19:09.407Z,76.14
2022-09-24T12:21:41.307Z,78.25
2022-09-24T12:24:22.871Z,79.67
2022-09-24T12:26:53.094Z,77.60
2022-09-24T12:29:54.084Z,76.43
2022-09-24T12:32:45.511Z,75.89
2022-09-24T12:35:23.051Z,74.62
2022-09-24T12:37:53.916Z,74.59
2022-09-24T12:40:41.670Z,75.67
2022-09-24T12:43:17.886Z,72.77
2022-09-24T12:45:47.007Z,73.17
2022-09-24T12:48:16.220Z,74.40
2022-09-24T12:50:46.069Z,76.42
2022-09-24T12:53:24.709Z,77.56
2022-09-24T12:55:52.878Z,75.49
2022-09-24T12:58:29.353Z,75.09
2022-09-24T13:01:11.318Z,75.20
2022-09-24T13:03:44.643Z,72.20
2022-09-24T13:06:30.096Z,73.68
2022-09-24T13:08:57.126Z,71.60
2022-09-24T13:11:29.512Z,72.61
2022-09-24T13:14:04.296Z,74.04
2022-09-24T13:16:39.016Z,72.20
2022-09-24T13:19:20.743Z,72.79
2022-09-24T13:21:54.245Z,71.84
2022-09-24T13:24:27.720Z,73.57
2022-09-24T13:26:54.509Z,76.23
2022-09-24T13:29:24.956Z,71.33
2022-09-24T13:31:59.778Z,71.95
2022-09-24T13:34:28.228Z,72.00
2022-09-24T13:36:58.980Z,68.94
2022-09-24T13:39:34.359Z,70.29
2022-09-24T13:42:08.455Z,71.37
2022-09-24T13:44:37.485Z,71.17
2022-09-24T13:47:14.625Z,70.88
2022-09-24T13:49:45.395Z,76.44
2022-09-24T13:52:18.197Z,76.28
2022-09-24T13:54:53.110Z,70.00
2022-09-24T13:57:23.549Z,71.65
2022-09-24T14:00:00.842Z,73.88
2022-09-24T14:02:34.990Z,73.80
2022-09-24T14:05:02.041Z,70.11
2022-09-24T14:07:29.643Z,72.19
2022-09-24T14:10:05.134Z,70.49
2022-09-24T14:12:32.110Z,73.67
2022-09-24T14:14:59.849Z,72.65
2022-09-24T14:17:28.214Z,73.54
2022-09-24T14:19:57.221Z,71.71
2022-09-24T14:22:29.317Z,74.25
2022-09-24T14:25:00.814Z,75.52
2022-09-24T14:27:30.924Z,74.45
2022-09-24T14:30:00.878Z,77.29
2022-09-24T14:32:32.128Z,78.63
2022-09-24T14:35:03.018Z,76.47
2022-09-24T14:37:33.124Z,74.87
2022-09-24T14:40:05.070Z,78.06
2022-09-24T14:42:36.674Z,74.57
2022-09-24T14:45:06.436Z,73.06
2022-09-24T14:47:36.486Z,74.91
2022-09-24T14:50:06.080Z,76.02
2022-09-24T14:52:37.847Z,76.44
2022-09-24T14:55:15.242Z,75.54
2022-09-24T14:57:48.295Z,75.89
2022-09-24T15:00:24.778Z,73.73
2022-09-24T15:02:58.574Z,73.26
2022-09-24T15:05:26.478Z,77.49
2022-09-24T15:08:08.159Z,75.72
2022-09-24T15:10:35.067Z,78.73
2022-09-24T15:13:13.713Z,74.20
2022-09-24T15:15:41.105Z,78.04
2022-09-24T15:18:11.506Z,77.95
2022-09-24T15:20:38.333Z,78.96
2022-09-24T15:23:05.378Z,77.61
2022-09-24T15:25:32.252Z,78.77
2022-09-24T15:27:59.423Z,79.56
2022-09-24T15:30:26.219Z,83.05
2022-09-24T15:32:53.045Z,81.48
2022-09-24T15:35:21.296Z,78.54
2022-09-24T15:37:49.569Z,79.77
2022-09-24T15:40:20.688Z,79.28
2022-09-24T15:42:47.599Z,79.29
2022-09-24T15:45:19.496Z,77.88
2022-09-24T15:47:46.261Z,79.41
2022-09-24T15:50:13.638Z,77.67
2022-09-24T15:52:47.004Z,77.92
2022-09-24T15:55:16.414Z,77.56
2022-09-24T15:57:43.341Z,74.71
2022-09-24T16:00:14.394Z,73.69
2022-09-24T16:02:43.918Z,71.17
2022-09-24T16:05:12.878Z,70.35
2022-09-24T16:07:39.771Z,68.08
2022-09-24T16:10:09.609Z,63.76
2022-09-24T16:12:36.708Z,65.29
2022-09-24T16:15:04.278Z,65.64
2022-09-24T16:17:31.274Z,66.70
2022-09-24T16:19:58.187Z,65.63
2022-09-24T16:22:25.195Z,65.66
2022-09-24T16:24:52.114Z,65.13
2022-09-24T16:27:20.293Z,65.95
2022-09-24T16:29:47.088Z,66.97
2022-09-24T16:32:14.065Z,66.99
2022-09-24T16:34:41.007Z,65.66
2022-09-24T16:37:08.194Z,65.19
2022-09-24T16:39:35.023Z,64.89
2022-09-24T16:42:02.060Z,63.21
2022-09-24T16:44:30.204Z,65.18
2022-09-24T16:46:57.037Z,65.10
2022-09-24T16:49:24.093Z,66.15
2022-09-24T16:51:50.973Z,64.36
2022-09-24T16:54:19.772Z,66.92
2022-09-24T16:56:48.534Z,66.86
2022-09-24T16:59:16.502Z,67.62
2022-09-24T17:01:44.866Z,66.25
2022-09-24T17:04:11.751Z,67.25
2022-09-24T17:06:38.629Z,69.20
2022-09-24T17:09:24.251Z,70.15
2022-09-24T17:11:51.152Z,72.58
2022-09-24T17:14:18.608Z,72.36
2022-09-24T17:16:46.882Z,72.64
2022-09-24T17:19:13.791Z,71.46
2022-09-24T17:21:43.010Z,74.56
2022-09-24T17:24:10.178Z,72.79
2022-09-24T17:26:37.926Z,74.33
2022-09-24T17:29:04.847Z,74.83
2022-09-24T17:31:31.894Z,77.18
2022-09-24T17:34:02.472Z,76.49
2022-09-24T17:36:30.822Z,79.50
2022-09-24T17:38:59.349Z,78.93
2022-09-24T17:41:27.282Z,79.35
2022-09-24T17:43:58.707Z,80.97
2022-09-24T17:46:27.406Z,82.22
2022-09-24T17:48:56.378Z,80.20
2022-09-24T17:51:25.973Z,80.59
2022-09-24T17:53:54.781Z,81.70
2022-09-24T17:56:23.286Z,82.07
2022-09-24T17:58:50.530Z,82.50
2022-09-24T18:01:20.351Z,82.97
2022-09-24T18:03:49.559Z,83.30
2022-09-24T18:06:16.636Z,84.45
2022-09-24T18:08:45.918Z,84.68
2022-09-24T18:11:15.004Z,85.65
2022-09-24T18:13:42.000Z,87.18
2022-09-24T18:16:10.663Z,86.94
2022-09-24T18:18:38.591Z,87.27
2022-09-24T18:21:08.813Z,86.97
2022-09-24T18:23:35.758Z,87.33
2022-09-24T18:26:12.841Z,87.81
2022-09-24T18:28:40.627Z,87.56
2022-09-24T18:31:08.938Z,87.44
2022-09-24T18:33:37.903Z,88.53
2022-09-24T18:36:07.170Z,89.72
2022-09-24T18:38:34.651Z,90.63
2022-09-24T18:41:06.680Z,90.88
2022-09-24T18:43:35.209Z,91.47
2022-09-24T18:46:03.706Z,90.75
2022-09-24T18:48:31.127Z,92.35
2022-09-24T18:50:58.029Z,92.73
2022-09-24T18:53:24.979Z,94.48
2022-09-24T18:55:52.399Z,96.92
2022-09-24T18:58:19.275Z,97.23
2022-09-24T19:00:51.015Z,96.98
2022-09-24T19:03:18.574Z,97.49
2022-09-24T19:05:47.652Z,97.83
2022-09-24T19:08:14.674Z,98.38
2022-09-24T19:10:41.971Z,99.13
2022-09-24T19:13:08.899Z,97.76
2022-09-24T19:15:36.481Z,98.26
2022-09-24T19:18:06.986Z,98.35
2022-09-24T19:20:36.254Z,99.79
2022-09-24T19:23:03.619Z,97.81
2022-09-24T19:25:32.439Z,97.36
2022-09-24T19:27:59.493Z,98.01
2022-09-24T19:30:27.538Z,97.66
2022-09-24T19:32:54.354Z,98.97
2022-09-24T19:35:22.569Z,97.73
2022-09-24T19:37:49.385Z,96.95
2022-09-24T19:40:16.579Z,97.95
2022-09-24T19:42:44.105Z,98.49
2022-09-24T19:45:11.281Z,99.19
2022-09-24T19:47:38.048Z,98.09
2022-09-24T19:50:05.892Z,99.56
2022-09-24T19:52:35.052Z,97.81
2022-09-24T19:55:01.887Z,98.14
2022-09-24T19:57:28.718Z,100.00
2022-09-24T19:59:55.515Z,100.00
2022-09-24T20:02:22.373Z,99.97
2022-09-24T20:04:49.279Z,100.00
2022-09-24T20:07:17.851Z,99.96
2022-09-24T20:09:46.193Z,100.00
2022-09-24T20:12:18.323Z,100.00
2022-09-24T20:14:45.522Z,100.00
2022-09-24T20:17:13.413Z,100.00
2022-09-24T20:19:40.274Z,100.00
2022-09-24T20:22:08.862Z,100.00
2022-09-24T20:24:35.905Z,100.00
2022-09-24T20:27:22.751Z,100.00
2022-09-24T20:29:49.610Z,100.00
2022-09-24T20:32:16.459Z,100.00
2022-09-24T20:34:43.436Z,100.00
2022-09-24T20:37:10.682Z,100.00
2022-09-24T20:39:37.530Z,100.00
2022-09-24T20:42:06.110Z,100.00
2022-09-24T20:44:33.374Z,100.00
2022-09-24T20:47:00.829Z,100.00
2022-09-24T20:49:28.159Z,100.00
2022-09-24T20:51:57.512Z,100.00
2022-09-24T20:54:25.442Z,100.00
2022-09-24T20:56:52.255Z,100.00
2022-09-24T20:59:20.486Z,100.00
2022-09-24T21:01:48.170Z,100.00
2022-09-24T21:04:15.214Z,100.00
2022-09-24T21:06:42.000Z,100.00
2022-09-24T21:09:08.922Z,100.00
2022-09-24T21:11:35.809Z,100.00
2022-09-24T21:14:03.149Z,100.00
2022-09-24T21:16:32.909Z,100.00
2022-09-24T21:19:00.588Z,100.00
2022-09-24T21:21:29.707Z,100.00
2022-09-24T21:23:59.279Z,100.00
2022-09-24T21:26:27.953Z,100.00
2022-09-24T21:28:56.345Z,100.00
2022-09-24T21:31:25.381Z,100.00
2022-09-24T21:33:53.796Z,100.00
2022-09-24T21:36:21.821Z,100.00
2022-09-24T21:38:54.785Z,100.00
2022-09-24T21:41:22.703Z,100.00
2022-09-24T21:43:49.565Z,100.00
2022-09-24T21:46:16.607Z,100.00
2022-09-24T21:48:43.489Z,100.00
2022-09-24T21:51:21.276Z,100.00
2022-09-24T21:53:48.715Z,100.00
2022-09-24T21:56:18.808Z,100.00
2022-09-24T21:58:46.047Z,100.00
2022-09-24T22:01:16.314Z,100.00
2022-09-24T22:03:46.775Z,100.00
2022-09-24T22:06:15.616Z,100.00
2022-09-24T22:08:43.215Z,100.00
2022-09-24T22:11:11.725Z,100.00
2022-09-24T22:13:39.545Z,100.00
2022-09-24T22:16:08.129Z,100.00
2022-09-24T22:18:36.225Z,100.00
2022-09-24T22:21:07.607Z,100.00
2022-09-24T22:23:35.850Z,100.00
2022-09-24T22:26:03.003Z,100.00
2022-09-24T22:28:30.058Z,100.00
2022-09-24T22:30:59.396Z,100.00
2022-09-24T22:33:47.233Z,100.00
2022-09-24T22:36:14.563Z,100.00
2022-09-24T22:38:42.728Z,100.00
2022-09-24T22:41:11.087Z,100.00
2022-09-24T22:43:39.084Z,100.00
2022-09-24T22:46:07.689Z,100.00
2022-09-24T22:48:35.293Z,100.00
2022-09-24T22:51:03.328Z,100.00
2022-09-24T22:53:33.796Z,100.00
2022-09-24T22:56:08.117Z,100.00
2022-09-24T22:58:36.120Z,100.00
2022-09-24T23:01:07.688Z,100.00
2022-09-24T23:03:35.517Z,100.00
2022-09-24T23:06:02.448Z,100.00
2022-09-24T23:08:33.208Z,100.00
2022-09-24T23:11:07.448Z,100.00
2022-09-24T23:13:34.355Z,100.00
2022-09-24T23:16:10.351Z,100.00
2022-09-24T23:18:37.866Z,100.00
2022-09-24T23:21:06.382Z,100.00
2022-09-24T23:23:33.656Z,100.00
2022-09-24T23:26:07.260Z,100.00
2022-09-24T23:28:35.699Z,100.00
2022-09-24T23:31:02.998Z,100.00
2022-09-24T23:33:34.376Z,100.00
2022-09-24T23:36:02.010Z,100.00
2022-09-24T23:38:29.842Z,100.00
2022-09-24T23:40:57.333Z,100.00
2022-09-24T23:43:25.569Z,100.00
2022-09-24T23:45:52.367Z,100.00
2022-09-24T23:48:19.997Z,100.00
2022-09-24T23:50:47.963Z,100.00
2022-09-24T23:53:16.488Z,100.00
2022-09-24T23:55:46.363Z,100.00
2022-09-24T23:58:16.386Z,100.00
